EA7CL Malaga ES current weather conditions

sailwx.info

Wind from 050

Air temperature 15.6° C
Dewpoint 10.9° C

Last reported at 2019-Apr-23 04:00 UTC.
Time now 2019-Apr-23 04:31 UTC

Location: N 36°44' W 004°27'.
View on Google Maps.

See reports from other nearby stations

  
Tides and Currents Weather Stations Pressure Air Temp Water Temp Dewpoint Dewpoint Depression Visibility Wind Speed Wind Dir Waves Ship Positions
date/time (UTC)wind fromknots sea level pressurealtimeterstation pressurevisibilityair tempwater tempwave heightnotes
2019-Apr-23 04:00 050 15.6
2019-Apr-23 03:50 054 5 gusting 7 15.6
2019-Apr-23 03:40 046 2 gusting 7 15.6
2019-Apr-23 03:30 057 4 gusting 7 15.6
2019-Apr-23 03:20 052 4 gusting 7 15.6
2019-Apr-23 03:10 042 3 gusting 7 15.6
2019-Apr-23 03:00 038 3 gusting 7 15.6
2019-Apr-23 02:50 028 0 gusting 3 15.6
2019-Apr-23 02:40 056 1 gusting 3 15.6
2019-Apr-23 02:30 056 2 gusting 7 15.6
2019-Apr-23 02:20 056 6 gusting 7 15.6
2019-Apr-23 02:10 054 1 gusting 6 15.6
2019-Apr-23 02:00 061 0 gusting 6 15.6
2019-Apr-23 01:50 052 2 gusting 7 15.6
2019-Apr-23 01:40 046 2 gusting 6 15.6
2019-Apr-23 01:30 059 2 gusting 6 15.6
2019-Apr-23 01:20 076 2 gusting 6 15.6
2019-Apr-23 01:10 085 15.6
2019-Apr-23 01:00 061 0 gusting 3 15.6
2019-Apr-23 00:50 15.6
2019-Apr-23 00:40 040 1 gusting 3 15.6
2019-Apr-23 00:30 057 1 gusting 3 16.1
2019-Apr-23 00:20 025 16.1
2019-Apr-23 00:10 066 1 gusting 3 16.1
2019-Apr-23 00:00 111 16.1
2019-Apr-22 23:50 16.7
2019-Apr-22 23:40 16.7
2019-Apr-22 23:30 16.7
2019-Apr-22 23:20 16.7
2019-Apr-22 23:10 17.2
2019-Apr-22 23:00 17.2
2019-Apr-22 22:50 294 1 gusting 3 17.2
2019-Apr-22 22:40 288 1 gusting 3 17.8
2019-Apr-22 22:30 207 1 gusting 3 17.8
2019-Apr-22 22:20 257 3 gusting 6 17.8
2019-Apr-22 22:10 274 3 gusting 6 17.8
2019-Apr-22 22:00 238 3 gusting 6 17.8
2019-Apr-22 21:50 18.3
2019-Apr-22 21:40 207 18.3
2019-Apr-22 21:30 108 0 gusting 3 18.3
2019-Apr-22 21:20 18.9
2019-Apr-22 21:10 088 18.9
2019-Apr-22 21:00 279 1 gusting 6 19.4
2019-Apr-22 20:50 296 6 gusting 10 19.4
2019-Apr-22 20:40 294 6 gusting 12 19.4
2019-Apr-22 20:30 293 6 gusting 14 20.0
2019-Apr-22 20:20 294 9 gusting 14 20.0
2019-Apr-22 20:10 288 7 gusting 14 20.0
2019-Apr-22 20:00 281 6 gusting 12 20.6
2019-Apr-22 19:50 283 6 gusting 12 20.6
2019-Apr-22 19:40 277 6 gusting 10 20.6
2019-Apr-22 19:30 281 6 gusting 12 21.1
2019-Apr-22 19:20 283 12 gusting 20 21.1
2019-Apr-22 19:10 280 11 gusting 23 21.1
2019-Apr-22 19:00 282 12 gusting 20 21.7
2019-Apr-22 18:50 278 13 gusting 25 21.7
2019-Apr-22 18:40 277 14 gusting 20 22.2
2019-Apr-22 18:30 279 14 gusting 23 22.2
2019-Apr-22 18:20 274 15 gusting 25 22.8
2019-Apr-22 18:10 286 16 gusting 25 22.8
2019-Apr-22 18:00 284 15 gusting 25 23.3
2019-Apr-22 17:50 291 14 gusting 23 23.3
2019-Apr-22 17:40 274 13 gusting 27 23.3
2019-Apr-22 17:30 285 8 gusting 16 23.3
2019-Apr-22 17:20 288 13 gusting 20 23.3
2019-Apr-22 17:10 289 7 gusting 20 23.3
2019-Apr-22 17:00 279 6 gusting 12 22.8
2019-Apr-22 16:50 295 4 gusting 10 22.8
2019-Apr-22 16:40 308 6 gusting 20 22.8
2019-Apr-22 16:30 295 6 gusting 12 23.3
2019-Apr-22 16:20 290 6 gusting 14 23.9
2019-Apr-22 16:10 306 7 gusting 16 23.9
2019-Apr-22 16:00 298 9 gusting 19 24.4
2019-Apr-22 15:50 304 9 gusting 20 23.9
2019-Apr-22 15:40 008 5 gusting 14 23.9
2019-Apr-22 15:30 283 12 gusting 20 23.3
2019-Apr-22 15:20 295 11 gusting 23 23.3
2019-Apr-22 15:10 312 4 gusting 16 23.3
2019-Apr-22 15:00 297 13 gusting 27 23.3
2019-Apr-22 14:50 303 13 gusting 23 22.8
2019-Apr-22 14:40 279 13 gusting 25 22.8
2019-Apr-22 14:30 007 4 gusting 12 22.8
2019-Apr-22 14:20 310 5 gusting 10 22.8
2019-Apr-22 14:10 356 4 gusting 19 22.8
2019-Apr-22 14:00 005 6 gusting 14 22.2
2019-Apr-22 13:50 345 5 gusting 12 22.2
2019-Apr-22 13:40 288 10 gusting 20 21.7
2019-Apr-22 13:30 304 10 gusting 23 21.7
2019-Apr-22 13:20 296 11 gusting 19 21.7
2019-Apr-22 13:10 292 10 gusting 19 21.1
2019-Apr-22 13:00 294 13 gusting 23 21.1
2019-Apr-22 12:50 285 13 gusting 23 21.1
2019-Apr-22 12:40 288 13 gusting 25 20.6
2019-Apr-22 12:30 288 12 gusting 20 20.6
2019-Apr-22 12:20 271 17 gusting 29 20.6
2019-Apr-22 12:10 282 17 gusting 29 20.6
2019-Apr-22 12:00 281 16 gusting 27 20.6
2019-Apr-22 11:50 294 13 gusting 23 20.6
2019-Apr-22 11:40 307 8 gusting 16 20.6
2019-Apr-22 11:30 306 6 gusting 20 20.6
2019-Apr-22 11:20 301 8 gusting 16 20.6
2019-Apr-22 11:10 300 6 gusting 14 20.0
2019-Apr-22 11:00 295 12 gusting 23 20.0
2019-Apr-22 10:50 325 6 gusting 16 19.4
2019-Apr-22 10:40 305 13 gusting 25 19.4
2019-Apr-22 10:30 296 14 gusting 23 18.9
2019-Apr-22 10:20 298 9 gusting 19 18.3
2019-Apr-22 10:10 320 3 gusting 10 18.3
2019-Apr-22 10:00 359 3 gusting 14 17.8
2019-Apr-22 09:50 348 6 gusting 14 17.8
2019-Apr-22 09:40 308 6 gusting 19 17.2
2019-Apr-22 09:30 293 13 gusting 25 17.2
2019-Apr-22 09:20 308 7 gusting 25 16.7
2019-Apr-22 09:10 292 9 gusting 19 16.7
2019-Apr-22 09:00 295 6 gusting 14 16.1
2019-Apr-22 08:50 292 6 gusting 14 16.1
2019-Apr-22 08:40 314 7 gusting 14 15.6
2019-Apr-22 08:30 286 7 gusting 14 15.6
2019-Apr-22 08:20 295 11 gusting 20 15.0
2019-Apr-22 08:10 295 13 gusting 23 15.0
2019-Apr-22 08:00 299 14 gusting 20 15.0
2019-Apr-22 07:50 292 13 gusting 27 15.0
2019-Apr-22 07:40 288 14 gusting 25 14.4
2019-Apr-22 07:30 299 17 gusting 23 14.4
2019-Apr-22 07:20 297 17 gusting 25 14.4
2019-Apr-22 07:10 295 13 gusting 20 14.4
2019-Apr-22 07:00 295 6 gusting 12 14.4
2019-Apr-22 06:50 264 3 gusting 12 14.4
2019-Apr-22 06:40 253 3 gusting 7 13.9
2019-Apr-22 06:30 290 4 gusting 7 13.9
2019-Apr-22 06:20 300 7 gusting 14 13.9
2019-Apr-22 06:10 307 6 gusting 12 13.9
2019-Apr-22 06:00 308 5 gusting 7 13.9
2019-Apr-22 05:50 300 7 gusting 12 13.9
2019-Apr-22 05:40 304 7 gusting 14 13.9
2019-Apr-22 05:30 300 2 gusting 7 13.9
2019-Apr-22 05:20 301 2 gusting 6 14.4
2019-Apr-22 05:10 285 2 gusting 12 14.4
2019-Apr-22 05:00 290 5 gusting 12 14.4
2019-Apr-22 04:50 352 3 gusting 10 13.9
2019-Apr-22 04:40 305 4 gusting 10 13.9
2019-Apr-22 04:30 308 2 gusting 7 13.3
2019-Apr-22 04:20 284 6 gusting 10 13.3
2019-Apr-22 04:10 300 7 gusting 10 13.3
2019-Apr-22 04:00 289 7 gusting 12 13.3
2019-Apr-22 03:50 290 9 gusting 14 13.3
2019-Apr-22 03:40 297 9 gusting 16 13.3
2019-Apr-22 03:30 296 6 gusting 12 13.3
2019-Apr-22 03:20 292 6 gusting 12 13.3
2019-Apr-22 03:10 291 6 gusting 12 13.3
2019-Apr-22 03:00 296 9 gusting 14 13.3
2019-Apr-22 02:50 294 8 gusting 14 13.3
2019-Apr-22 02:40 296 11 gusting 16 13.3
2019-Apr-22 02:30 274 3 gusting 6 13.3
2019-Apr-22 02:20 273 6 gusting 10 13.3
2019-Apr-22 02:10 278 8 gusting 12 13.9
2019-Apr-22 02:00 279 6 gusting 12 13.9
2019-Apr-22 01:50 283 6 gusting 14 13.9
2019-Apr-22 01:40 292 5 gusting 10 13.9
2019-Apr-22 01:30 306 4 gusting 10 13.9
2019-Apr-22 01:20 288 4 gusting 7 13.9
2019-Apr-22 01:10 287 4 gusting 7 13.9
2019-Apr-22 01:00 283 3 gusting 7 13.9
2019-Apr-22 00:50 236 1 gusting 6 13.9
2019-Apr-22 00:40 286 4 gusting 6 14.4
2019-Apr-22 00:30 281 0 gusting 6 14.4
2019-Apr-22 00:20 302 7 gusting 14 14.4
2019-Apr-22 00:10 303 10 gusting 19 14.4
2019-Apr-22 00:00 286 3 gusting 10 14.4
2019-Apr-21 23:50 279 4 gusting 10 14.4
2019-Apr-21 23:40 274 2 gusting 7 15.0
2019-Apr-21 23:30 263 15.0
2019-Apr-21 23:20 262 1 gusting 6 15.0
2019-Apr-21 23:10 285 6 gusting 12 15.0
2019-Apr-21 23:00 298 10 gusting 14 15.0
2019-Apr-21 22:50 301 11 gusting 14 15.0
2019-Apr-21 22:40 293 10 gusting 16 15.0
2019-Apr-21 22:30 299 8 gusting 12 15.0
2019-Apr-21 22:20 289 6 gusting 12 15.0
2019-Apr-21 22:10 295 5 gusting 10 14.4
2019-Apr-21 22:00 292 5 gusting 7 14.4
2019-Apr-21 21:50 281 5 gusting 7 14.4
2019-Apr-21 21:40 282 4 gusting 10 14.4
2019-Apr-21 21:30 283 6 gusting 10 14.4
2019-Apr-21 21:20 274 5 gusting 10 14.4
2019-Apr-21 21:10 271 4 gusting 7 15.0
2019-Apr-21 21:00 274 5 gusting 10 15.0
2019-Apr-21 20:50 283 6 gusting 7 15.0
2019-Apr-21 20:40 289 6 gusting 10 15.0
2019-Apr-21 20:30 291 6 gusting 10 15.0
2019-Apr-21 20:20 293 5 gusting 7 15.0
2019-Apr-21 20:10 279 4 gusting 7 15.0
2019-Apr-21 20:00 290 3 gusting 7 15.0
2019-Apr-21 19:50 279 4 gusting 7 15.0
2019-Apr-21 19:40 281 3 gusting 6 15.0
2019-Apr-21 19:30 270 3 gusting 6 15.0
2019-Apr-21 19:20 283 0 gusting 3 15.0
2019-Apr-21 19:10 267 1 gusting 3 15.0
2019-Apr-21 19:00 289 15.0
2019-Apr-21 18:50 275 0 gusting 3 15.0
2019-Apr-21 18:40 241 15.0
2019-Apr-21 18:30 044 0 gusting 3 15.0
2019-Apr-21 18:20 332 14.4
2019-Apr-21 18:10 035 14.4
2019-Apr-21 18:00 14.4
2019-Apr-21 17:50 162 14.4
2019-Apr-21 17:40 178 14.4
2019-Apr-21 17:30 153 1 gusting 3 14.4
2019-Apr-21 17:20 200 0 gusting 3 14.4
2019-Apr-21 17:10 200 2 gusting 6 14.4
2019-Apr-21 17:00 165 15.0
2019-Apr-21 16:50 211 15.0
2019-Apr-21 16:40 151 1 gusting 6 15.0
2019-Apr-21 16:30 155 2 gusting 6 15.0
2019-Apr-21 16:20 122 3 gusting 7 15.0
2019-Apr-21 16:10 117 15.0
2019-Apr-21 16:00 093 2 gusting 6 15.6
2019-Apr-21 15:50 112 4 gusting 10 15.6
2019-Apr-21 15:40 103 4 gusting 7 15.6
2019-Apr-21 15:30 102 1 gusting 6 15.6
2019-Apr-21 15:20 120 4 gusting 7 15.6
2019-Apr-21 15:10 095 3 gusting 6 15.6
2019-Apr-21 15:00 118 4 gusting 7 16.1
2019-Apr-21 14:50 100 3 gusting 7 16.1
2019-Apr-21 14:40 088 2 gusting 6 16.7
2019-Apr-21 14:30 096 3 gusting 7 16.7
2019-Apr-21 14:20 086 3 gusting 7 16.7
2019-Apr-21 14:10 113 2 gusting 6 17.2
2019-Apr-21 14:00 121 3 gusting 7 17.8
2019-Apr-21 13:50 091 4 gusting 7 17.8
2019-Apr-21 13:40 106 3 gusting 7 18.3
2019-Apr-21 13:30 123 4 gusting 12 18.9
2019-Apr-21 13:20 121 5 gusting 10 18.9
2019-Apr-21 13:10 129 3 gusting 10 19.4
2019-Apr-21 13:00 123 2 gusting 10 18.9
2019-Apr-21 12:50 133 4 gusting 7 18.9
2019-Apr-21 12:40 127 5 gusting 10 18.9
2019-Apr-21 12:30 115 2 gusting 7 18.3
2019-Apr-21 12:20 135 4 gusting 10 18.3
2019-Apr-21 12:10 136 3 gusting 10 17.8
2019-Apr-21 12:00 153 5 gusting 10 17.8
2019-Apr-21 11:50 154 6 gusting 10 17.8
2019-Apr-21 11:40 147 6 gusting 12 18.3
2019-Apr-21 11:30 161 6 gusting 12 18.9
2019-Apr-21 11:20 103 0 gusting 3 18.3
2019-Apr-21 11:10 122 1 gusting 6 18.3
2019-Apr-21 11:00 124 1 gusting 6 18.3
2019-Apr-21 10:50 111 0 gusting 6 17.8
2019-Apr-21 10:40 103 1 gusting 6 17.8
2019-Apr-21 10:30 077 17.2
2019-Apr-21 10:20 16.1
2019-Apr-21 10:10 184 15.6
2019-Apr-21 10:00 15.0
2019-Apr-21 09:50 239 0 gusting 3 15.0
2019-Apr-21 09:40 225 0 gusting 3 15.0
2019-Apr-21 09:30 284 4 gusting 7 14.4
2019-Apr-21 09:20 279 4 gusting 7 14.4
2019-Apr-21 09:10 287 3 gusting 7 14.4
2019-Apr-21 09:00 288 5 gusting 10 13.9
2019-Apr-21 08:50 280 3 gusting 7 13.9
2019-Apr-21 08:40 268 4 gusting 7 13.9
2019-Apr-21 08:30 260 5 gusting 7 13.9
2019-Apr-21 08:20 250 3 gusting 7 13.9
2019-Apr-21 08:10 248 3 gusting 6 13.9
2019-Apr-21 08:00 270 1 gusting 6 13.9
2019-Apr-21 07:50 292 5 gusting 7 13.9
2019-Apr-21 07:40 281 6 gusting 12 13.9
2019-Apr-21 07:30 290 9 gusting 14 13.9
2019-Apr-21 07:20 290 4 gusting 12 13.3
2019-Apr-21 07:10 295 4 gusting 10 13.3
2019-Apr-21 07:00 297 10 gusting 14 13.3
2019-Apr-21 06:50 283 8 gusting 14 13.3
2019-Apr-21 06:40 280 12 gusting 16 13.3
2019-Apr-21 06:30 282 9 gusting 14 12.8
2019-Apr-21 06:20 287 7 gusting 12 12.8
2019-Apr-21 06:10 286 9 gusting 14 12.8
2019-Apr-21 06:00 279 8 gusting 14 12.8
2019-Apr-21 05:50 293 6 gusting 10 12.8
2019-Apr-21 05:40 295 7 gusting 12 12.8
2019-Apr-21 05:30 292 7 gusting 12 12.8
2019-Apr-21 05:20 287 8 gusting 12 12.8
2019-Apr-21 05:10 278 9 gusting 14 12.2
2019-Apr-21 05:00 274 7 gusting 12 12.8
2019-Apr-21 04:50 258 6 gusting 10 12.8
2019-Apr-21 04:40 284 6 gusting 10 12.8
2019-Apr-21 04:30 276 8 gusting 12 13.3
2019-Apr-21 04:20 286 8 gusting 12 13.3
2019-Apr-21 04:10 281 8 gusting 14 12.8
2019-Apr-21 04:00 285 7 gusting 12 12.8